sensor_id;sensor_type;location;lat;lon;timestamp;P1;durP1;ratioP1;P2;durP2;ratioP2
7211;SDS011;3647;48.792;9.802;2022-11-03T12:43:33;4.57;;;2.80;;
7211;SDS011;3647;48.792;9.802;2022-11-03T12:46:00;3.50;;;3.03;;
7211;SDS011;3647;48.792;9.802;2022-11-03T12:48:27;3.10;;;2.80;;
7211;SDS011;3647;48.792;9.802;2022-11-03T12:50:54;3.43;;;3.00;;
7211;SDS011;3647;48.792;9.802;2022-11-03T12:53:21;6.17;;;3.10;;
7211;SDS011;3647;48.792;9.802;2022-11-03T12:55:48;4.63;;;3.07;;
7211;SDS011;3647;48.792;9.802;2022-11-03T12:58:14;4.43;;;2.73;;
7211;SDS011;3647;48.792;9.802;2022-11-03T13:00:43;5.30;;;3.43;;
7211;SDS011;3647;48.792;9.802;2022-11-03T13:03:10;5.90;;;3.60;;
7211;SDS011;3647;48.792;9.802;2022-11-03T13:05:37;4.73;;;2.80;;
7211;SDS011;3647;48.792;9.802;2022-11-03T13:08:04;3.97;;;2.97;;
7211;SDS011;3647;48.792;9.802;2022-11-03T13:10:31;5.43;;;3.20;;
7211;SDS011;3647;48.792;9.802;2022-11-03T13:12:58;4.23;;;3.07;;
7211;SDS011;3647;48.792;9.802;2022-11-03T13:15:24;4.77;;;2.90;;
7211;SDS011;3647;48.792;9.802;2022-11-03T13:17:53;4.17;;;3.73;;
7211;SDS011;3647;48.792;9.802;2022-11-03T13:20:20;4.37;;;3.73;;
7211;SDS011;3647;48.792;9.802;2022-11-03T13:22:47;5.40;;;3.23;;
7211;SDS011;3647;48.792;9.802;2022-11-03T13:25:14;5.70;;;3.90;;
7211;SDS011;3647;48.792;9.802;2022-11-03T13:27:41;6.83;;;3.70;;
7211;SDS011;3647;48.792;9.802;2022-11-03T13:30:08;4.97;;;3.27;;
7211;SDS011;3647;48.792;9.802;2022-11-03T13:32:36;6.50;;;3.00;;
7211;SDS011;3647;48.792;9.802;2022-11-03T13:35:04;5.23;;;3.43;;
7211;SDS011;3647;48.792;9.802;2022-11-03T13:37:31;5.20;;;3.60;;
7211;SDS011;3647;48.792;9.802;2022-11-03T13:39:58;9.23;;;3.80;;
7211;SDS011;3647;48.792;9.802;2022-11-03T13:42:25;9.23;;;4.37;;
7211;SDS011;3647;48.792;9.802;2022-11-03T13:44:51;7.00;;;3.90;;
7211;SDS011;3647;48.792;9.802;2022-11-03T13:47:18;7.17;;;4.03;;
7211;SDS011;3647;48.792;9.802;2022-11-03T13:49:46;5.47;;;3.80;;
7211;SDS011;3647;48.792;9.802;2022-11-03T13:52:17;4.73;;;3.97;;
7211;SDS011;3647;48.792;9.802;2022-11-03T13:54:44;4.10;;;3.57;;
7211;SDS011;3647;48.792;9.802;2022-11-03T13:57:11;5.27;;;4.13;;
7211;SDS011;3647;48.792;9.802;2022-11-03T13:59:38;6.63;;;4.23;;
7211;SDS011;3647;48.792;9.802;2022-11-03T14:02:05;6.23;;;3.63;;
7211;SDS011;3647;48.792;9.802;2022-11-03T14:04:32;7.23;;;5.90;;
7211;SDS011;3647;48.792;9.802;2022-11-03T14:06:59;9.50;;;6.23;;
7211;SDS011;3647;48.792;9.802;2022-11-03T14:09:27;8.17;;;4.77;;
7211;SDS011;3647;48.792;9.802;2022-11-03T14:11:54;4.97;;;4.40;;
7211;SDS011;3647;48.792;9.802;2022-11-03T14:14:43;7.37;;;5.50;;
7211;SDS011;3647;48.792;9.802;2022-11-03T14:17:10;6.63;;;4.63;;
7211;SDS011;3647;48.792;9.802;2022-11-03T14:19:37;6.97;;;4.70;;
7211;SDS011;3647;48.792;9.802;2022-11-03T14:22:04;5.93;;;4.57;;
7211;SDS011;3647;48.792;9.802;2022-11-03T14:24:32;5.30;;;4.50;;
7211;SDS011;3647;48.792;9.802;2022-11-03T14:26:58;7.97;;;4.53;;
7211;SDS011;3647;48.792;9.802;2022-11-03T14:29:25;5.40;;;4.33;;
7211;SDS011;3647;48.792;9.802;2022-11-03T14:31:52;9.27;;;4.83;;
7211;SDS011;3647;48.792;9.802;2022-11-03T14:34:19;6.53;;;4.50;;
7211;SDS011;3647;48.792;9.802;2022-11-03T14:36:46;6.10;;;5.03;;
7211;SDS011;3647;48.792;9.802;2022-11-03T14:39:13;7.63;;;4.80;;
7211;SDS011;3647;48.792;9.802;2022-11-03T14:41:41;6.43;;;4.13;;
7211;SDS011;3647;48.792;9.802;2022-11-03T14:44:25;6.20;;;4.10;;
7211;SDS011;3647;48.792;9.802;2022-11-03T14:46:52;6.60;;;4.30;;
7211;SDS011;3647;48.792;9.802;2022-11-03T14:49:19;4.97;;;3.87;;
7211;SDS011;3647;48.792;9.802;2022-11-03T14:51:45;10.47;;;6.07;;
7211;SDS011;3647;48.792;9.802;2022-11-03T14:54:12;6.60;;;4.50;;
7211;SDS011;3647;48.792;9.802;2022-11-03T14:56:39;5.17;;;4.67;;
7211;SDS011;3647;48.792;9.802;2022-11-03T14:59:07;6.67;;;4.90;;
7211;SDS011;3647;48.792;9.802;2022-11-03T15:01:34;6.50;;;4.70;;
7211;SDS011;3647;48.792;9.802;2022-11-03T15:04:02;7.40;;;5.03;;
7211;SDS011;3647;48.792;9.802;2022-11-03T15:06:30;5.90;;;4.87;;
7211;SDS011;3647;48.792;9.802;2022-11-03T15:08:57;7.77;;;5.47;;
7211;SDS011;3647;48.792;9.802;2022-11-03T15:11:24;7.47;;;5.07;;
7211;SDS011;3647;48.792;9.802;2022-11-03T15:13:51;6.77;;;4.67;;
7211;SDS011;3647;48.792;9.802;2022-11-03T15:16:20;4.73;;;4.13;;
7211;SDS011;3647;48.792;9.802;2022-11-03T15:18:47;5.07;;;3.97;;
7211;SDS011;3647;48.792;9.802;2022-11-03T15:21:14;6.80;;;4.70;;
7211;SDS011;3647;48.792;9.802;2022-11-03T15:23:42;7.10;;;4.80;;
7211;SDS011;3647;48.792;9.802;2022-11-03T15:26:08;8.50;;;5.10;;
7211;SDS011;3647;48.792;9.802;2022-11-03T15:28:36;6.63;;;4.77;;
7211;SDS011;3647;48.792;9.802;2022-11-03T15:31:03;6.23;;;4.77;;
7211;SDS011;3647;48.792;9.802;2022-11-03T15:33:31;6.50;;;4.90;;
7211;SDS011;3647;48.792;9.802;2022-11-03T15:35:58;7.07;;;5.63;;
7211;SDS011;3647;48.792;9.802;2022-11-03T15:38:28;7.17;;;5.17;;
7211;SDS011;3647;48.792;9.802;2022-11-03T15:40:55;8.47;;;6.13;;
7211;SDS011;3647;48.792;9.802;2022-11-03T15:43:39;7.57;;;5.47;;
7211;SDS011;3647;48.792;9.802;2022-11-03T15:46:06;8.53;;;5.83;;
7211;SDS011;3647;48.792;9.802;2022-11-03T15:48:34;7.97;;;5.90;;
7211;SDS011;3647;48.792;9.802;2022-11-03T15:51:01;8.23;;;5.87;;
7211;SDS011;3647;48.792;9.802;2022-11-03T15:53:28;12.67;;;7.90;;
7211;SDS011;3647;48.792;9.802;2022-11-03T15:55:55;9.57;;;6.80;;
7211;SDS011;3647;48.792;9.802;2022-11-03T15:58:22;9.20;;;6.30;;
7211;SDS011;3647;48.792;9.802;2022-11-03T16:00:48;5.83;;;4.97;;
7211;SDS011;3647;48.792;9.802;2022-11-03T16:03:16;6.07;;;4.60;;
7211;SDS011;3647;48.792;9.802;2022-11-03T16:05:44;9.73;;;5.60;;
7211;SDS011;3647;48.792;9.802;2022-11-03T16:08:11;5.00;;;4.40;;
7211;SDS011;3647;48.792;9.802;2022-11-03T16:10:37;5.83;;;5.17;;
7211;SDS011;3647;48.792;9.802;2022-11-03T16:13:04;7.87;;;4.87;;
7211;SDS011;3647;48.792;9.802;2022-11-03T16:15:31;7.03;;;5.07;;
7211;SDS011;3647;48.792;9.802;2022-11-03T16:17:58;9.93;;;5.47;;
7211;SDS011;3647;48.792;9.802;2022-11-03T16:20:26;7.47;;;5.27;;
7211;SDS011;3647;48.792;9.802;2022-11-03T16:22:55;8.60;;;5.87;;
7211;SDS011;3647;48.792;9.802;2022-11-03T16:25:22;9.87;;;7.00;;
7211;SDS011;3647;48.792;9.802;2022-11-03T16:27:49;10.83;;;6.30;;
7211;SDS011;3647;48.792;9.802;2022-11-03T16:30:17;11.73;;;7.13;;
7211;SDS011;3647;48.792;9.802;2022-11-03T16:32:43;9.37;;;6.30;;
7211;SDS011;3647;48.792;9.802;2022-11-03T16:35:10;10.23;;;5.90;;
7211;SDS011;3647;48.792;9.802;2022-11-03T16:37:37;7.83;;;5.23;;
7211;SDS011;3647;48.792;9.802;2022-11-03T16:40:06;9.83;;;6.97;;
7211;SDS011;3647;48.792;9.802;2022-11-03T16:42:34;12.37;;;6.70;;
7211;SDS011;3647;48.792;9.802;2022-11-03T16:45:03;9.57;;;6.30;;
7211;SDS011;3647;48.792;9.802;2022-11-03T16:47:39;11.67;;;7.10;;
7211;SDS011;3647;48.792;9.802;2022-11-03T16:50:06;9.23;;;6.80;;
7211;SDS011;3647;48.792;9.802;2022-11-03T16:52:33;7.93;;;6.70;;
7211;SDS011;3647;48.792;9.802;2022-11-03T16:55:00;10.47;;;6.90;;
7211;SDS011;3647;48.792;9.802;2022-11-03T16:57:28;10.33;;;6.30;;
7211;SDS011;3647;48.792;9.802;2022-11-03T16:59:55;10.37;;;7.00;;
7211;SDS011;3647;48.792;9.802;2022-11-03T17:02:21;10.73;;;6.27;;
7211;SDS011;3647;48.792;9.802;2022-11-03T17:04:48;9.10;;;6.57;;
7211;SDS011;3647;48.792;9.802;2022-11-03T17:07:15;9.33;;;7.57;;
7211;SDS011;3647;48.792;9.802;2022-11-03T17:09:42;11.60;;;7.03;;
7211;SDS011;3647;48.792;9.802;2022-11-03T17:12:09;11.53;;;7.37;;
7211;SDS011;3647;48.792;9.802;2022-11-03T17:14:37;10.07;;;7.00;;
7211;SDS011;3647;48.792;9.802;2022-11-03T17:17:04;9.43;;;7.33;;
7211;SDS011;3647;48.792;9.802;2022-11-03T17:19:31;11.70;;;7.27;;
7211;SDS011;3647;48.792;9.802;2022-11-03T17:21:57;12.20;;;8.00;;
7211;SDS011;3647;48.792;9.802;2022-11-03T17:24:24;14.17;;;7.53;;
7211;SDS011;3647;48.792;9.802;2022-11-03T17:26:53;11.50;;;6.90;;
7211;SDS011;3647;48.792;9.802;2022-11-03T17:29:24;10.23;;;7.57;;
7211;SDS011;3647;48.792;9.802;2022-11-03T17:31:58;9.20;;;7.37;;
7211;SDS011;3647;48.792;9.802;2022-11-03T17:34:25;11.23;;;7.43;;
7211;SDS011;3647;48.792;9.802;2022-11-03T17:36:52;9.27;;;7.23;;
7211;SDS011;3647;48.792;9.802;2022-11-03T17:39:21;11.20;;;6.97;;
7211;SDS011;3647;48.792;9.802;2022-11-03T17:41:52;11.07;;;7.53;;
7211;SDS011;3647;48.792;9.802;2022-11-03T17:44:19;12.03;;;6.80;;
7211;SDS011;3647;48.792;9.802;2022-11-03T17:46:46;13.60;;;8.80;;
7211;SDS011;3647;48.792;9.802;2022-11-03T17:49:14;13.27;;;8.23;;
7211;SDS011;3647;48.792;9.802;2022-11-03T17:51:41;11.40;;;8.33;;
7211;SDS011;3647;48.792;9.802;2022-11-03T17:54:09;11.47;;;8.20;;
7211;SDS011;3647;48.792;9.802;2022-11-03T17:56:41;9.77;;;7.63;;
7211;SDS011;3647;48.792;9.802;2022-11-03T17:59:09;10.10;;;7.13;;
7211;SDS011;3647;48.792;9.802;2022-11-03T18:01:39;9.87;;;7.33;;
7211;SDS011;3647;48.792;9.802;2022-11-03T18:04:08;9.47;;;6.87;;
7211;SDS011;3647;48.792;9.802;2022-11-03T18:06:38;9.30;;;6.57;;
7211;SDS011;3647;48.792;9.802;2022-11-03T18:09:06;10.37;;;7.87;;
7211;SDS011;3647;48.792;9.802;2022-11-03T18:11:33;11.30;;;7.97;;
7211;SDS011;3647;48.792;9.802;2022-11-03T18:14:20;11.03;;;7.63;;
7211;SDS011;3647;48.792;9.802;2022-11-03T18:16:47;12.10;;;7.80;;
7211;SDS011;3647;48.792;9.802;2022-11-03T18:19:15;13.20;;;8.67;;
7211;SDS011;3647;48.792;9.802;2022-11-03T18:21:43;12.37;;;8.90;;
7211;SDS011;3647;48.792;9.802;2022-11-03T18:24:11;14.07;;;8.67;;
7211;SDS011;3647;48.792;9.802;2022-11-03T18:26:40;10.63;;;8.20;;
7211;SDS011;3647;48.792;9.802;2022-11-03T18:29:06;14.43;;;9.83;;
7211;SDS011;3647;48.792;9.802;2022-11-03T18:31:35;13.40;;;9.70;;
7211;SDS011;3647;48.792;9.802;2022-11-03T18:34:05;10.43;;;8.57;;
7211;SDS011;3647;48.792;9.802;2022-11-03T18:36:37;13.00;;;7.90;;
7211;SDS011;3647;48.792;9.802;2022-11-03T18:39:05;11.13;;;7.57;;
7211;SDS011;3647;48.792;9.802;2022-11-03T18:41:32;12.13;;;9.00;;
7211;SDS011;3647;48.792;9.802;2022-11-03T18:44:05;12.83;;;9.23;;
7211;SDS011;3647;48.792;9.802;2022-11-03T18:46:38;12.30;;;8.50;;
7211;SDS011;3647;48.792;9.802;2022-11-03T18:49:05;12.23;;;8.23;;
7211;SDS011;3647;48.792;9.802;2022-11-03T18:51:32;12.50;;;8.03;;
7211;SDS011;3647;48.792;9.802;2022-11-03T18:53:58;11.97;;;8.77;;
7211;SDS011;3647;48.792;9.802;2022-11-03T18:56:27;17.90;;;10.53;;
7211;SDS011;3647;48.792;9.802;2022-11-03T18:58:54;14.40;;;8.80;;
7211;SDS011;3647;48.792;9.802;2022-11-03T19:01:23;11.23;;;7.63;;
7211;SDS011;3647;48.792;9.802;2022-11-03T19:03:51;10.57;;;7.53;;
7211;SDS011;3647;48.792;9.802;2022-11-03T19:06:18;8.73;;;7.17;;
7211;SDS011;3647;48.792;9.802;2022-11-03T19:08:45;11.33;;;8.20;;
7211;SDS011;3647;48.792;9.802;2022-11-03T19:11:12;11.13;;;6.60;;
7211;SDS011;3647;48.792;9.802;2022-11-03T19:13:42;11.77;;;7.73;;
7211;SDS011;3647;48.792;9.802;2022-11-03T19:18:38;9.60;;;7.10;;
7211;SDS011;3647;48.792;9.802;2022-11-03T19:21:07;13.13;;;7.73;;
7211;SDS011;3647;48.792;9.802;2022-11-03T19:23:36;11.40;;;8.77;;
7211;SDS011;3647;48.792;9.802;2022-11-03T19:26:03;9.33;;;6.97;;
7211;SDS011;3647;48.792;9.802;2022-11-03T19:28:30;8.73;;;7.40;;
7211;SDS011;3647;48.792;9.802;2022-11-03T19:30:59;13.27;;;8.77;;
7211;SDS011;3647;48.792;9.802;2022-11-03T19:33:27;14.47;;;9.53;;
7211;SDS011;3647;48.792;9.802;2022-11-03T19:35:55;10.90;;;9.43;;
7211;SDS011;3647;48.792;9.802;2022-11-03T19:38:22;14.00;;;9.77;;
7211;SDS011;3647;48.792;9.802;2022-11-03T19:40:50;14.20;;;10.87;;
7211;SDS011;3647;48.792;9.802;2022-11-03T19:43:34;14.77;;;11.33;;
7211;SDS011;3647;48.792;9.802;2022-11-03T19:46:03;14.93;;;10.30;;
7211;SDS011;3647;48.792;9.802;2022-11-03T19:48:31;12.03;;;8.50;;
7211;SDS011;3647;48.792;9.802;2022-11-03T19:50:59;12.77;;;8.83;;
7211;SDS011;3647;48.792;9.802;2022-11-03T19:53:27;12.00;;;8.93;;
7211;SDS011;3647;48.792;9.802;2022-11-03T19:55:55;13.90;;;8.90;;
7211;SDS011;3647;48.792;9.802;2022-11-03T19:58:23;13.10;;;8.70;;
7211;SDS011;3647;48.792;9.802;2022-11-03T20:00:51;12.53;;;8.03;;
7211;SDS011;3647;48.792;9.802;2022-11-03T20:03:20;12.30;;;8.23;;
7211;SDS011;3647;48.792;9.802;2022-11-03T20:05:49;9.50;;;7.77;;
7211;SDS011;3647;48.792;9.802;2022-11-03T20:08:18;10.47;;;7.47;;
7211;SDS011;3647;48.792;9.802;2022-11-03T20:10:48;10.80;;;7.57;;
7211;SDS011;3647;48.792;9.802;2022-11-03T20:13:15;12.97;;;8.47;;
7211;SDS011;3647;48.792;9.802;2022-11-03T20:15:44;14.57;;;11.17;;
7211;SDS011;3647;48.792;9.802;2022-11-03T20:18:11;16.30;;;10.33;;
7211;SDS011;3647;48.792;9.802;2022-11-03T20:20:40;14.57;;;10.33;;
7211;SDS011;3647;48.792;9.802;2022-11-03T20:23:10;14.67;;;11.20;;
7211;SDS011;3647;48.792;9.802;2022-11-03T20:25:43;13.87;;;10.30;;
7211;SDS011;3647;48.792;9.802;2022-11-03T20:28:12;14.73;;;9.30;;
7211;SDS011;3647;48.792;9.802;2022-11-03T20:30:43;10.23;;;8.33;;
7211;SDS011;3647;48.792;9.802;2022-11-03T20:33:10;10.40;;;7.43;;
7211;SDS011;3647;48.792;9.802;2022-11-03T20:35:41;10.87;;;8.00;;
7211;SDS011;3647;48.792;9.802;2022-11-03T20:38:09;11.90;;;9.43;;
7211;SDS011;3647;48.792;9.802;2022-11-03T20:40:39;12.10;;;9.67;;
7211;SDS011;3647;48.792;9.802;2022-11-03T20:43:08;11.80;;;8.93;;
7211;SDS011;3647;48.792;9.802;2022-11-03T20:45:41;14.13;;;9.13;;
7211;SDS011;3647;48.792;9.802;2022-11-03T20:48:09;15.33;;;8.83;;
7211;SDS011;3647;48.792;9.802;2022-11-03T20:50:37;17.53;;;11.30;;
7211;SDS011;3647;48.792;9.802;2022-11-03T20:53:08;17.37;;;11.87;;
7211;SDS011;3647;48.792;9.802;2022-11-03T20:55:39;13.03;;;9.60;;
7211;SDS011;3647;48.792;9.802;2022-11-03T20:58:08;13.30;;;9.00;;
7211;SDS011;3647;48.792;9.802;2022-11-03T21:00:36;13.57;;;9.57;;
7211;SDS011;3647;48.792;9.802;2022-11-03T21:03:08;14.40;;;9.57;;
7211;SDS011;3647;48.792;9.802;2022-11-03T21:05:41;12.50;;;8.50;;
7211;SDS011;3647;48.792;9.802;2022-11-03T21:08:09;14.57;;;10.50;;
7211;SDS011;3647;48.792;9.802;2022-11-03T21:10:37;16.60;;;10.50;;
7211;SDS011;3647;48.792;9.802;2022-11-03T21:13:08;12.67;;;9.87;;
7211;SDS011;3647;48.792;9.802;2022-11-03T21:15:38;15.10;;;9.87;;
7211;SDS011;3647;48.792;9.802;2022-11-03T21:18:23;16.10;;;10.90;;
7211;SDS011;3647;48.792;9.802;2022-11-03T21:21:07;12.70;;;9.77;;
7211;SDS011;3647;48.792;9.802;2022-11-03T21:23:36;15.50;;;10.57;;
7211;SDS011;3647;48.792;9.802;2022-11-03T21:26:03;14.37;;;10.33;;
7211;SDS011;3647;48.792;9.802;2022-11-03T21:28:30;13.47;;;9.53;;
7211;SDS011;3647;48.792;9.802;2022-11-03T21:30:57;17.77;;;10.30;;
7211;SDS011;3647;48.792;9.802;2022-11-03T21:33:24;10.90;;;8.07;;
7211;SDS011;3647;48.792;9.802;2022-11-03T21:35:51;13.63;;;8.57;;
7211;SDS011;3647;48.792;9.802;2022-11-03T21:38:19;13.50;;;8.93;;
7211;SDS011;3647;48.792;9.802;2022-11-03T21:40:48;14.20;;;9.33;;
7211;SDS011;3647;48.792;9.802;2022-11-03T21:43:35;14.70;;;8.80;;
7211;SDS011;3647;48.792;9.802;2022-11-03T21:46:20;15.57;;;9.30;;
7211;SDS011;3647;48.792;9.802;2022-11-03T21:48:46;15.43;;;9.40;;
7211;SDS011;3647;48.792;9.802;2022-11-03T21:51:31;16.07;;;10.17;;
7211;SDS011;3647;48.792;9.802;2022-11-03T21:53:58;14.37;;;9.90;;
7211;SDS011;3647;48.792;9.802;2022-11-03T21:56:26;12.07;;;9.10;;
7211;SDS011;3647;48.792;9.802;2022-11-03T21:58:53;13.17;;;9.37;;
7211;SDS011;3647;48.792;9.802;2022-11-03T22:01:20;12.03;;;9.13;;
7211;SDS011;3647;48.792;9.802;2022-11-03T22:03:47;11.80;;;9.47;;
7211;SDS011;3647;48.792;9.802;2022-11-03T22:06:14;13.43;;;9.00;;
7211;SDS011;3647;48.792;9.802;2022-11-03T22:08:42;14.33;;;9.07;;
7211;SDS011;3647;48.792;9.802;2022-11-03T22:11:09;14.43;;;9.67;;
7211;SDS011;3647;48.792;9.802;2022-11-03T22:13:50;14.30;;;8.63;;
